Time;durP1;ratioP1;P1;durP2;ratioP2;P2;SDS_P1;SDS_P2;PMS_P1;PMS_P2;Temp;Humidity;BMP_temperature;BMP_pressure;BME280_temperature;BME280_humidity;BME280_pressure;Samples;Min_cycle;Max_cycle;Signal;HPM_P1;HPM_P2
2023/11/23 00:00:20;;;;;;;49.15;22.37;;;;;;;-3.98;75.40;100833.23;1747162;82;26691;-49
2023/11/23 00:02:49;;;;;;;48.92;23.15;;;;;;;-3.98;75.31;100830.59;1747130;81;25433;-51
2023/11/23 00:05:20;;;;;;;50.12;23.75;;;;;;;-3.95;75.55;100822.23;1748519;81;25649;-49
2023/11/23 00:07:47;;;;;;;54.88;25.23;;;;;;;-3.96;75.69;100818.78;1771712;80;25623;-48
2023/11/23 00:10:20;;;;;;;52.88;23.57;;;;;;;-3.97;75.50;100811.05;1771607;81;25660;-50
2023/11/23 00:12:46;;;;;;;;;;;;;;;-3.95;75.51;100805.05;1774158;81;27925;-50
2023/11/23 00:15:15;;;;;;;52.10;23.62;;;;;;;-3.95;75.78;100794.48;1771397;81;25656;-48
2023/11/23 00:17:42;;;;;;;49.45;25.08;;;;;;;-3.96;75.81;100792.36;1771516;80;25653;-49
2023/11/23 00:20:14;;;;;;;40.48;19.17;;;;;;;-3.96;76.13;100788.91;1771549;80;25778;-50
2023/11/23 00:22:41;;;;;;;51.45;23.80;;;;;;;-3.96;76.50;100765.92;1771739;81;25445;-50
2023/11/23 00:25:14;;;;;;;46.13;22.02;;;;;;;-3.96;76.79;100766.45;1750346;81;27259;-52
2023/11/23 00:27:42;;;;;;;53.63;23.40;;;;;;;-3.98;76.56;100765.32;1771600;80;25466;-52
2023/11/23 00:30:17;;;;;;;50.43;23.02;;;;;;;-3.97;76.54;100759.03;1734105;81;25693;-50
2023/11/23 00:32:44;;;;;;;49.80;23.38;;;;;;;-3.94;76.67;100752.00;1771555;80;25678;-49
2023/11/23 00:35:11;;;;;;;48.90;21.12;;;;;;;-3.92;76.77;100754.95;1771601;81;25555;-48
2023/11/23 00:37:40;;;;;;;46.77;22.85;;;;;;;-3.91;77.02;100756.08;1771631;81;27325;-50
2023/11/23 00:40:17;;;;;;;42.13;21.20;;;;;;;-3.89;76.92;100753.23;1771550;81;25441;-51
2023/11/23 00:42:43;;;;;;;39.65;20.15;;;;;;;-3.88;77.01;100756.17;1771633;80;25550;-49
2023/11/23 00:45:14;;;;;;;43.92;20.43;;;;;;;-3.89;76.86;100752.72;1771569;81;25714;-49
2023/11/23 00:47:43;;;;;;;41.98;20.90;;;;;;;-3.89;77.24;100746.11;1771654;80;25393;-48
2023/11/23 00:50:16;;;;;;;41.42;19.60;;;;;;;-3.88;77.07;100725.77;1770742;81;27383;-50
2023/11/23 00:52:43;;;;;;;45.40;21.55;;;;;;;-3.85;77.54;100725.37;1771488;81;25587;-49
2023/11/23 00:55:09;;;;;;;41.70;19.20;;;;;;;-3.86;77.64;100702.62;1771554;81;25412;-49
2023/11/23 00:57:38;;;;;;;42.43;20.45;;;;;;;-3.87;77.45;100708.39;1771567;80;26283;-53
2023/11/23 01:00:16;;;;;;;41.68;18.98;;;;;;;-3.87;77.41;100708.39;1750465;81;25498;-53
2023/11/23 01:02:46;;;;;;;46.20;20.45;;;;;;;-3.87;77.31;100716.32;1771628;80;27745;-50
2023/11/23 01:05:20;;;;;;;39.80;18.42;;;;;;;-3.85;77.71;100713.48;1771473;80;25602;-50
2023/11/23 01:07:46;;;;;;;37.38;18.45;;;;;;;-3.85;77.75;100702.91;1748328;81;25846;-51
2023/11/23 01:10:17;;;;;;;36.55;18.92;;;;;;;-3.85;77.86;100701.06;1746985;82;25556;-49
2023/11/23 01:12:46;;;;;;;35.75;18.05;;;;;;;-3.85;77.64;100696.30;1747104;82;25437;-51
2023/11/23 01:15:15;;;;;;;42.15;17.77;;;;;;;-3.86;77.79;100690.20;1747111;82;27650;-49
2023/11/23 01:17:48;;;;;;;40.23;18.25;;;;;;;-3.87;77.87;100688.56;1747063;82;25446;-53
2023/11/23 01:20:15;;;;;;;37.00;17.82;;;;;;;-3.85;77.88;100693.66;1743774;82;25609;-49
2023/11/23 01:22:42;;;;;;;34.70;17.30;;;;;;;-3.86;77.86;100692.84;1747075;82;25631;-51
2023/11/23 01:25:10;;;;;;;36.63;18.12;;;;;;;-3.88;78.21;100680.35;1746617;82;25464;-50
2023/11/23 01:27:38;;;;;;;37.03;18.00;;;;;;;-3.88;78.06;100669.78;1747152;82;27212;-50
2023/11/23 01:30:14;;;;;;;40.15;18.70;;;;;;;-3.86;78.20;100678.83;1747050;82;25560;-53
2023/11/23 01:32:41;;;;;;;39.05;18.90;;;;;;;-3.86;78.15;100685.44;1747142;82;25635;-49
2023/11/23 01:35:10;;;;;;;35.85;17.40;;;;;;;-3.88;78.28;100675.06;1747041;82;25638;-51
2023/11/23 01:37:42;;;;;;;33.98;18.42;;;;;;;-3.91;78.18;100664.89;1747138;82;25448;-52
2023/11/23 01:40:17;;;;;;;35.43;18.52;;;;;;;-3.89;78.36;100670.78;1747215;82;27939;-53
2023/11/23 01:42:44;;;;;;;31.68;16.82;;;;;;;-3.89;78.45;100674.75;1747099;81;25547;-51
2023/11/23 01:45:15;;;;;;;35.25;17.98;;;;;;;-3.89;78.30;100658.89;1747086;82;25629;-51
2023/11/23 01:47:45;;;;;;;39.23;18.48;;;;;;;-3.88;78.37;100653.92;1747172;82;25636;-49
2023/11/23 01:50:15;;;;;;;41.58;18.73;;;;;;;-3.87;78.36;100637.02;1746315;81;25616;-49
2023/11/23 01:52:43;;;;;;;39.33;18.07;;;;;;;-3.88;78.36;100624.84;1747046;82;27353;-49
2023/11/23 01:55:12;;;;;;;36.93;17.92;;;;;;;-3.90;78.58;100624.21;1746926;82;25479;-49
2023/11/23 01:57:43;;;;;;;36.05;17.48;;;;;;;-3.89;78.56;100602.06;1747076;82;25560;-49
2023/11/23 02:00:17;;;;;;;35.50;16.45;;;;;;;-3.88;78.61;100580.40;1747040;82;26055;-48
2023/11/23 02:02:48;;;;;;;30.80;15.88;;;;;;;-3.87;78.61;100572.78;1747232;81;25424;-49
2023/11/23 02:05:23;;;;;;;32.95;15.32;;;;;;;-3.89;78.74;100549.72;1747181;82;27316;-50
2023/11/23 02:07:53;;;;;;;36.68;16.48;;;;;;;-3.89;78.73;100547.88;1747129;81;25382;-49
2023/11/23 02:10:21;;;;;;;;;;;;;;;-3.88;78.69;100532.34;1749687;82;25376;-49
2023/11/23 02:12:52;;;;;;;29.90;14.33;;;;;;;-3.89;78.84;100539.95;1747101;82;25668;-49
2023/11/23 02:15:18;;;;;;;34.75;16.70;;;;;;;-3.90;78.72;100538.31;1747250;82;25589;-50
2023/11/23 02:17:46;;;;;;;30.02;15.03;;;;;;;-3.91;79.12;100545.95;1746848;82;27696;-49
2023/11/23 02:20:13;;;;;;;35.78;18.87;;;;;;;-3.91;78.97;100551.25;1747029;82;25672;-49
2023/11/23 02:22:41;;;;;;;34.88;17.82;;;;;;;-3.89;79.09;100538.63;1747223;82;25584;-49
2023/11/23 02:25:13;;;;;;;33.90;17.55;;;;;;;-3.84;79.34;100543.30;1747106;82;25619;-49
2023/11/23 02:27:42;;;;;;;35.17;18.27;;;;;;;-3.82;79.16;100541.26;1747198;82;25537;-49
2023/11/23 02:30:19;;;;;;;33.20;18.67;;;;;;;-3.79;79.36;100524.98;1747209;82;27320;-49
2023/11/23 02:32:52;;;;;;;35.25;17.75;;;;;;;-3.77;79.23;100523.74;1747117;82;25603;-50
2023/11/23 02:35:19;;;;;;;34.60;18.15;;;;;;;-3.73;79.27;100541.32;1747273;82;25569;-49
2023/11/23 02:37:51;;;;;;;33.02;17.25;;;;;;;-3.71;79.22;100522.61;1747075;81;26223;-49
2023/11/23 02:40:20;;;;;;;33.23;18.02;;;;;;;-3.68;79.63;100512.42;1747165;82;25434;-49
2023/11/23 02:42:46;;;;;;;31.02;16.95;;;;;;;-3.67;79.65;100505.33;1747102;82;27661;-49
2023/11/23 02:45:14;;;;;;;35.15;18.60;;;;;;;-3.66;79.17;100491.89;1747090;82;25377;-49
2023/11/23 02:47:44;;;;;;;34.95;18.52;;;;;;;-3.65;79.37;100494.83;1747183;82;25406;-51
2023/11/23 02:50:11;;;;;;;33.30;17.70;;;;;;;-3.62;79.32;100473.77;1747044;82;25622;-50
2023/11/23 02:52:39;;;;;;;36.42;17.27;;;;;;;-3.60;79.38;100470.41;1747215;82;25574;-53
2023/11/23 02:55:13;;;;;;;32.95;16.85;;;;;;;-3.59;79.41;100472.04;1747235;82;27318;-53
2023/11/23 02:57:42;;;;;;;30.55;15.93;;;;;;;-3.59;79.43;100468.88;1747161;82;25540;-53
2023/11/23 03:00:18;;;;;;;32.65;15.98;;;;;;;-3.54;79.37;100439.66;1747321;82;25615;-53
2023/11/23 03:02:45;;;;;;;31.07;16.37;;;;;;;-3.55;79.77;100432.23;1747104;82;26282;-50
2023/11/23 03:05:14;;;;;;;27.58;15.32;;;;;;;-3.54;79.59;100421.14;1747146;82;25565;-50
2023/11/23 03:07:44;;;;;;;36.38;18.77;;;;;;;-3.52;79.69;100401.89;1752313;81;27514;-49
2023/11/23 03:10:15;;;;;;;35.05;15.98;;;;;;;-3.52;79.61;100400.58;1755269;81;25389;-49
2023/11/23 03:12:43;;;;;;;30.90;15.08;;;;;;;-3.52;79.73;100388.67;1754680;81;25773;-49
2023/11/23 03:15:10;;;;;;;30.08;16.85;;;;;;;-3.51;79.87;100369.95;1755353;81;25634;-50
2023/11/23 03:17:38;;;;;;;36.28;18.05;;;;;;;-3.50;80.19;100362.85;1755363;81;25386;-51
2023/11/23 03:20:12;;;;;;;38.80;18.30;;;;;;;-3.50;79.99;100357.04;1755370;81;26693;-49
2023/11/23 03:22:39;;;;;;;35.55;17.65;;;;;;;-3.48;80.21;100344.41;1755297;81;25540;-49
2023/11/23 03:25:13;;;;;;;37.90;17.95;;;;;;;-3.46;80.68;100348.96;1755380;81;25383;-48
2023/11/23 03:27:40;;;;;;;35.70;18.65;;;;;;;-3.45;80.25;100323.34;1755345;80;25621;-49
2023/11/23 03:30:13;;;;;;;38.75;16.93;;;;;;;-3.43;80.44;100319.97;1755400;81;25687;-49
2023/11/23 03:32:39;;;;;;;39.45;18.37;;;;;;;-3.44;80.23;100305.94;1755402;81;27314;-49
2023/11/23 03:35:09;;;;;;;41.73;19.45;;;;;;;-3.43;80.47;100303.58;1755274;81;25558;-49
2023/11/23 03:37:37;;;;;;;40.92;19.52;;;;;;;-3.41;80.70;100288.81;1755479;80;25551;-49
2023/11/23 03:40:12;;;;;;;40.40;20.17;;;;;;;-3.41;80.97;100284.33;1755387;81;25697;-49
2023/11/23 03:42:39;;;;;;;39.15;18.55;;;;;;;-3.40;80.70;100283.31;1755400;81;25555;-48
2023/11/23 03:45:11;;;;;;;36.90;19.67;;;;;;;-3.39;80.95;100277.01;1755313;81;27797;-49
2023/11/23 03:47:37;;;;;;;45.00;20.20;;;;;;;-3.39;80.90;100278.33;1755377;81;25599;-50
2023/11/23 03:50:11;;;;;;;38.85;20.23;;;;;;;-3.36;80.99;100255.91;1755450;81;25529;-49
2023/11/23 03:52:40;;;;;;;37.28;17.77;;;;;;;-3.34;80.89;100246.44;1755425;81;25596;-49
2023/11/23 03:55:09;;;;;;;45.60;21.07;;;;;;;-3.32;81.09;100249.67;1755434;81;25397;-49
2023/11/23 03:57:41;;;;;;;40.20;19.55;;;;;;;-3.32;80.91;100206.85;1755313;81;27324;-48
2023/11/23 04:00:17;;;;;;;44.93;21.77;;;;;;;-3.31;81.35;100193.10;1755324;81;25687;-49
2023/11/23 04:02:49;;;;;;;42.08;21.37;;;;;;;-3.28;81.10;100200.61;1755315;80;25643;-49
2023/11/23 04:05:21;;;;;;;42.78;20.62;;;;;;;-3.27;81.31;100191.12;1755164;81;26407;-49
2023/11/23 04:07:47;;;;;;;46.20;22.95;;;;;;;-3.26;81.28;100184.80;1750719;80;25503;-49
2023/11/23 04:10:22;;;;;;;;;;;;;;;-3.24;81.50;100179.28;1749599;82;28132;-49
2023/11/23 04:12:52;;;;;;;38.38;19.07;;;;;;;-3.23;81.65;100163.19;1747045;82;25631;-48
2023/11/23 04:15:21;;;;;;;44.27;21.02;;;;;;;-3.22;81.57;100151.59;1747255;82;25736;-49
2023/11/23 04:17:47;;;;;;;48.83;22.70;;;;;;;-3.20;81.73;100142.91;1747071;82;27790;-49
2023/11/23 04:20:21;;;;;;;42.38;22.10;;;;;;;-3.18;82.07;100142.70;1747070;82;25611;-48
2023/11/23 04:22:57;;;;;;;43.80;22.70;;;;;;;-3.15;82.15;100136.14;1747088;82;27302;-49
2023/11/23 04:25:34;;;;;;;41.55;20.92;;;;;;;-3.15;82.07;100126.38;1746948;82;25562;-48
2023/11/23 04:28:00;;;;;;;43.45;22.75;;;;;;;-3.15;82.60;100105.22;1747043;82;25457;-51
2023/11/23 04:30:34;;;;;;;49.18;21.65;;;;;;;-3.13;82.53;100105.80;1747027;82;25969;-50
2023/11/23 04:33:09;;;;;;;47.58;22.40;;;;;;;-3.10;82.19;100098.73;1747053;81;25445;-49
2023/11/23 04:35:43;;;;;;;51.85;23.83;;;;;;;-3.08;82.77;100091.87;1747110;81;28090;-49
2023/11/23 04:38:12;;;;;;;47.30;21.52;;;;;;;-3.05;82.52;100076.88;1747091;82;25480;-49
2023/11/23 04:40:44;;;;;;;43.85;22.30;;;;;;;-3.02;82.48;100063.20;1747174;82;25559;-49
2023/11/23 04:43:14;;;;;;;46.90;22.67;;;;;;;-3.01;82.81;100057.69;1722437;82;26282;-49
2023/11/23 04:45:53;;;;;;;44.30;22.50;;;;;;;-2.97;83.15;100067.83;1747127;82;25449;-48
2023/11/23 04:48:22;;;;;;;47.15;24.05;;;;;;;-2.94;82.92;100038.27;1747129;82;27326;-50
2023/11/23 04:50:52;;;;;;;43.63;21.17;;;;;;;-2.92;82.98;100035.67;1747082;82;25626;-51
2023/11/23 04:53:21;;;;;;;44.05;21.50;;;;;;;-2.90;83.05;100030.16;1747245;82;25598;-51
2023/11/23 04:55:54;;;;;;;42.78;21.50;;;;;;;-2.87;83.05;100009.86;1747116;82;25688;-49
2023/11/23 04:58:28;;;;;;;47.62;22.35;;;;;;;-2.85;83.45;100016.52;1747161;82;25442;-48
2023/11/23 05:00:55;;;;;;;43.10;21.20;;;;;;;-2.82;83.66;100010.78;1747059;82;27395;-51
2023/11/23 05:03:21;;;;;;;40.80;20.50;;;;;;;-2.80;83.34;100006.59;1746978;82;25406;-49
2023/11/23 05:05:48;;;;;;;42.03;21.37;;;;;;;-2.78;83.80;99997.89;1747099;82;25572;-50
2023/11/23 05:08:15;;;;;;;38.60;21.10;;;;;;;-2.75;83.63;99994.80;1746878;81;25623;-50
2023/11/23 05:10:43;;;;;;;40.10;21.00;;;;;;;-2.72;84.00;99978.98;1747015;82;25564;-52
2023/11/23 05:13:10;;;;;;;46.42;22.55;;;;;;;-2.71;83.55;99957.55;1747153;81;27318;-52
2023/11/23 05:15:40;;;;;;;40.98;21.62;;;;;;;-2.68;83.72;99957.09;1747059;82;25434;-50
2023/11/23 05:18:08;;;;;;;44.60;21.27;;;;;;;-2.63;83.83;99952.44;1747003;82;25583;-50
2023/11/23 05:20:35;;;;;;;45.67;22.27;;;;;;;-2.60;83.69;99947.22;1747017;82;25616;-50
2023/11/23 05:23:03;;;;;;;39.73;21.50;;;;;;;-2.57;83.85;99952.03;1747159;82;25593;-52
2023/11/23 05:25:29;;;;;;;42.58;21.85;;;;;;;-2.54;84.02;99953.70;1747014;82;27949;-51
2023/11/23 05:27:56;;;;;;;37.25;19.27;;;;;;;-2.51;84.13;99934.70;1746926;82;25372;-51
2023/11/23 05:30:23;;;;;;;41.33;21.65;;;;;;;-2.47;84.09;99926.60;1747060;82;25648;-51
2023/11/23 05:32:50;;;;;;;46.20;21.60;;;;;;;-2.44;84.28;99920.81;1746992;82;26269;-51
2023/11/23 05:35:18;;;;;;;39.38;20.75;;;;;;;-2.40;84.45;99904.47;1747114;81;25561;-50
2023/11/23 05:37:44;;;;;;;43.75;20.90;;;;;;;-2.36;84.72;99893.70;1747162;82;27399;-50
2023/11/23 05:40:16;;;;;;;46.15;19.07;;;;;;;-2.33;84.66;99875.50;1747110;82;26394;-50
2023/11/23 05:42:43;;;;;;;37.30;18.80;;;;;;;-2.29;84.85;99871.86;1747185;82;25573;-50
2023/11/23 05:45:13;;;;;;;40.33;21.15;;;;;;;-2.26;84.63;99858.14;1747165;82;25624;-49
2023/11/23 05:47:41;;;;;;;40.40;19.42;;;;;;;-2.22;85.06;99849.20;1722398;82;25633;-49
2023/11/23 05:50:14;;;;;;;42.43;19.57;;;;;;;-2.20;85.09;99843.14;1747165;82;27374;-49
2023/11/23 05:52:43;;;;;;;44.33;19.42;;;;;;;-2.17;85.19;99839.50;1747027;82;26042;-49
2023/11/23 05:55:11;;;;;;;40.30;18.98;;;;;;;-2.13;86.36;99831.88;1747173;81;25555;-49
2023/11/23 05:57:37;;;;;;;42.27;20.75;;;;;;;-2.13;85.93;99822.11;1747132;82;25578;-48
2023/11/23 06:00:14;;;;;;;38.45;20.02;;;;;;;-2.10;86.35;99814.98;1747331;82;25457;-51
2023/11/23 06:02:41;;;;;;;40.50;18.32;;;;;;;-2.04;86.95;99835.78;1747346;82;27320;-47
2023/11/23 06:05:12;;;;;;;42.48;20.43;;;;;;;-2.00;86.88;99812.25;1747087;82;25454;-48
2023/11/23 06:07:39;;;;;;;39.45;18.87;;;;;;;-1.97;87.73;99809.92;1752224;81;25421;-52
2023/11/23 06:10:11;;;;;;;39.60;18.00;;;;;;;-1.94;87.29;99808.13;1733341;81;25965;-47
2023/11/23 06:12:41;;;;;;;39.10;17.50;;;;;;;-1.91;88.32;99801.04;1771876;81;25534;-49
2023/11/23 06:15:10;;;;;;;39.58;18.87;;;;;;;-1.85;88.51;99787.87;1771615;81;27231;-52
2023/11/23 06:17:37;;;;;;;42.78;18.23;;;;;;;-1.82;88.55;99780.73;1771629;80;25623;-50
2023/11/23 06:20:13;;;;;;;37.98;18.57;;;;;;;-1.77;88.20;99766.23;1771666;81;25551;-49
2023/11/23 06:22:39;;;;;;;39.80;18.42;;;;;;;-1.76;87.96;99740.81;1771709;81;25620;-53
2023/11/23 06:25:09;;;;;;;32.78;17.50;;;;;;;-1.73;88.86;99737.69;1771737;81;25395;-53
2023/11/23 06:27:37;;;;;;;39.10;18.27;;;;;;;-1.71;88.99;99719.67;1771730;81;28055;-52
2023/11/23 06:30:14;;;;;;;39.00;19.35;;;;;;;-1.66;88.62;99738.06;1750008;81;25649;-53
2023/11/23 06:32:42;;;;;;;33.55;17.42;;;;;;;-1.65;89.24;99719.76;1771688;80;25553;-53
2023/11/23 06:35:12;;;;;;;35.98;17.82;;;;;;;-1.61;89.61;99732.30;1771652;81;25642;-50
2023/11/23 06:37:38;;;;;;;37.60;18.42;;;;;;;-1.57;90.71;99722.01;1771551;81;25437;-50
2023/11/23 06:40:11;;;;;;;38.83;19.87;;;;;;;-1.55;90.53;99726.04;1770522;80;27093;-50
2023/11/23 06:42:38;;;;;;;44.70;19.92;;;;;;;-1.52;90.90;99725.53;1770359;81;25903;-51
2023/11/23 06:45:13;;;;;;;34.60;17.27;;;;;;;-1.47;90.88;99727.99;1770232;81;25698;-51
2023/11/23 06:47:38;;;;;;;44.08;19.35;;;;;;;-1.44;90.81;99715.58;1769964;80;25879;-50
2023/11/23 06:50:10;;;;;;;39.13;20.00;;;;;;;-1.40;91.14;99719.34;1748693;81;25713;-50
2023/11/23 06:52:37;;;;;;;38.25;18.95;;;;;;;-1.38;91.20;99712.75;1770434;81;27308;-52
2023/11/23 06:55:12;;;;;;;40.38;19.42;;;;;;;-1.36;91.44;99714.63;1771468;81;25509;-50
2023/11/23 06:57:49;;;;;;;46.45;19.82;;;;;;;-1.32;91.74;99713.09;1771620;80;25566;-52
2023/11/23 07:00:23;;;;;;;42.65;20.10;;;;;;;-1.26;92.09;99703.36;1771699;81;25611;-50
2023/11/23 07:03:00;;;;;;;39.15;19.15;;;;;;;-1.23;92.61;99683.48;1771687;81;25550;-50
2023/11/23 07:05:32;;;;;;;42.45;19.27;;;;;;;-1.17;92.70;99695.78;1771617;81;27720;-49
2023/11/23 07:08:00;;;;;;;40.58;19.32;;;;;;;-1.13;93.78;99688.92;1767971;80;25436;-51
2023/11/23 07:10:27;;;;;;;46.58;20.35;;;;;;;-1.09;92.90;99694.53;1755448;81;25591;-53
2023/11/23 07:12:59;;;;;;;41.50;19.30;;;;;;;-1.05;94.38;99681.86;1732281;81;25664;-49
2023/11/23 07:15:26;;;;;;;43.48;20.25;;;;;;;-1.01;93.99;99653.76;1755507;81;25412;-51
2023/11/23 07:17:56;;;;;;;36.33;18.62;;;;;;;-0.97;94.46;99650.91;1755431;80;27882;-53
2023/11/23 07:20:29;;;;;;;31.82;16.82;;;;;;;-0.94;94.86;99641.63;1755339;81;25593;-53
2023/11/23 07:22:56;;;;;;;43.05;17.80;;;;;;;-0.90;94.28;99626.81;1755457;81;25387;-49
2023/11/23 07:25:23;;;;;;;36.88;18.07;;;;;;;-0.85;95.57;99638.00;1755380;81;25575;-51
2023/11/23 07:27:55;;;;;;;35.40;16.02;;;;;;;-0.81;95.07;99627.96;1755576;81;25672;-50
2023/11/23 07:30:23;;;;;;;33.08;16.27;;;;;;;-0.80;95.82;99642.03;1755444;80;27311;-50
2023/11/23 07:32:51;;;;;;;34.75;16.27;;;;;;;-0.77;95.81;99638.38;1755253;81;25644;-49
2023/11/23 07:35:18;;;;;;;37.63;15.85;;;;;;;-0.73;95.69;99637.35;1755381;81;25614;-53
2023/11/23 07:37:50;;;;;;;34.60;15.32;;;;;;;-0.71;97.05;99645.08;1755326;81;25619;-51
2023/11/23 07:40:18;;;;;;;33.20;15.32;;;;;;;-0.68;96.76;99618.81;1755361;81;25559;-53
2023/11/23 07:42:47;;;;;;;35.30;14.83;;;;;;;-0.64;96.64;99619.90;1755427;81;27377;-51
2023/11/23 07:45:14;;;;;;;32.67;15.08;;;;;;;-0.62;96.67;99618.33;1755401;81;25387;-51
2023/11/23 07:47:44;;;;;;;35.78;15.60;;;;;;;-0.60;97.17;99600.27;1755312;81;25382;-52
2023/11/23 07:50:16;;;;;;;29.25;14.60;;;;;;;-0.57;97.53;99601.89;1755384;81;26374;-52
2023/11/23 07:52:47;;;;;;;39.33;14.20;;;;;;;-0.54;98.11;99599.28;1755321;81;25528;-56
2023/11/23 07:55:15;;;;;;;33.08;14.50;;;;;;;-0.51;97.46;99601.94;1755352;81;27683;-53
2023/11/23 07:57:49;;;;;;;29.63;13.62;;;;;;;-0.48;98.46;99593.47;1755258;80;25392;-53
2023/11/23 08:00:20;;;;;;;30.90;14.53;;;;;;;-0.46;98.05;99576.23;1755498;81;25377;-55
2023/11/23 08:02:48;;;;;;;30.70;14.65;;;;;;;-0.43;98.22;99577.58;1755380;81;25979;-57
2023/11/23 08:05:21;;;;;;;27.80;13.53;;;;;;;-0.40;98.10;99579.73;1755364;81;25528;-57
2023/11/23 08:07:53;;;;;;;30.43;12.88;;;;;;;-0.39;98.32;99570.18;1755306;80;28546;-58
2023/11/23 08:10:20;;;;;;;31.48;13.20;;;;;;;-0.36;98.17;99567.53;1726231;82;25635;-56
2023/11/23 08:12:53;;;;;;;28.50;13.30;;;;;;;-0.34;98.40;99563.29;1749283;82;25641;-57
2023/11/23 08:15:21;;;;;;;24.87;12.05;;;;;;;-0.32;99.36;99546.55;1749155;82;26272;-58
2023/11/23 08:17:49;;;;;;;29.37;12.50;;;;;;;-0.30;99.07;99554.56;1749180;81;25554;-58
2023/11/23 08:20:20;;;;;;;29.30;12.60;;;;;;;-0.29;99.12;99530.11;1749152;81;28440;-58
2023/11/23 08:22:47;;;;;;;30.48;12.90;;;;;;;-0.27;100.00;99523.49;1749187;82;25639;-58
2023/11/23 08:25:19;;;;;;;24.25;12.95;;;;;;;-0.25;100.00;99536.53;1749323;82;25462;-59
2023/11/23 08:27:47;;;;;;;21.25;11.78;;;;;;;-0.24;99.97;99530.14;1749160;82;26039;-57
2023/11/23 08:30:20;;;;;;;25.35;11.78;;;;;;;-0.23;100.00;99521.91;1749268;82;25596;-58
2023/11/23 08:32:46;;;;;;;22.95;12.07;;;;;;;-0.21;99.59;99534.41;1749236;81;27673;-59
2023/11/23 08:35:15;;;;;;;22.65;11.35;;;;;;;-0.18;99.47;99538.43;1749082;81;25422;-58
2023/11/23 08:37:42;;;;;;;25.15;12.75;;;;;;;-0.15;100.00;99539.25;1749139;82;25607;-60
2023/11/23 08:40:14;;;;;;;24.55;11.53;;;;;;;-0.12;100.00;99535.27;1749101;82;25619;-61
2023/11/23 08:42:45;;;;;;;23.02;11.60;;;;;;;-0.09;100.00;99539.54;1747946;82;25575;-61
2023/11/23 08:45:13;;;;;;;25.45;11.88;;;;;;;-0.07;100.00;99526.81;1749192;82;27370;-63
2023/11/23 08:47:42;;;;;;;24.60;11.88;;;;;;;-0.04;100.00;99515.64;1749066;82;25822;-63
2023/11/23 08:50:13;;;;;;;23.22;11.83;;;;;;;-0.01;100.00;99501.05;1749186;82;25530;-61
2023/11/23 08:52:41;;;;;;;26.33;11.53;;;;;;;0.01;100.00;99501.58;1749114;82;26236;-61
2023/11/23 08:55:10;;;;;;;22.80;11.43;;;;;;;0.04;100.00;99487.77;1749154;82;25708;-61
2023/11/23 08:57:40;;;;;;;24.43;12.40;;;;;;;0.08;100.00;99482.73;1749300;82;27382;-60
2023/11/23 09:00:23;;;;;;;22.00;11.20;;;;;;;0.09;100.00;99479.82;1749015;82;25643;-60
2023/11/23 09:02:46;;;;;;;21.43;10.87;;;;;;;0.14;100.00;99472.41;1748709;82;25575;-60
2023/11/23 09:05:12;;;;;;;22.48;10.60;;;;;;;0.18;100.00;99456.19;1749185;82;25637;-60
2023/11/23 09:07:40;;;;;;;22.35;11.18;;;;;;;0.20;100.00;99442.63;1749221;82;25648;-59
2023/11/23 09:10:12;;;;;;;24.27;11.78;;;;;;;0.25;100.00;99454.61;1747434;81;27345;-61
2023/11/23 09:12:41;;;;;;;19.15;10.25;;;;;;;0.30;100.00;99445.31;1747083;81;25521;-62
2023/11/23 09:15:13;;;;;;;18.50;10.00;;;;;;;0.33;100.00;99446.13;1747303;81;25622;-61
2023/11/23 09:17:39;;;;;;;21.35;11.03;;;;;;;0.39;100.00;99429.64;1747327;81;26634;-62
2023/11/23 09:20:16;;;;;;;19.15;10.55;;;;;;;0.42;100.00;99423.80;1747286;82;25665;-62
2023/11/23 09:22:52;;;;;;;20.23;10.03;;;;;;;0.44;100.00;99419.80;1747305;82;26887;-61
2023/11/23 09:25:29;;;;;;;21.37;10.85;;;;;;;0.49;100.00;99405.72;1741288;82;25603;-63
2023/11/23 09:27:55;;;;;;;21.93;11.28;;;;;;;0.51;100.00;99400.41;1749652;82;25564;-63
2023/11/23 09:30:27;;;;;;;21.75;11.25;;;;;;;0.53;100.00;99386.84;1749893;82;25610;-63
2023/11/23 09:33:09;;;;;;;19.62;10.93;;;;;;;0.58;100.00;99367.41;1749660;82;25245;-65
2023/11/23 09:35:43;;;;;;;22.00;11.48;;;;;;;0.62;100.00;99370.61;1746812;82;27359;-65
2023/11/23 09:38:17;;;;;;;18.00;9.10;;;;;;;0.66;100.00;99360.23;1747143;82;25683;-64
2023/11/23 09:40:53;;;;;;;16.90;10.95;;;;;;;0.69;100.00;99363.70;1747013;82;25634;-66
2023/11/23 09:43:31;;;;;;;24.72;12.07;;;;;;;0.72;100.00;99356.52;1747005;82;25987;-67
2023/11/23 09:46:02;;;;;;;23.60;11.28;;;;;;;0.74;100.00;99347.18;1745955;81;25556;-68
2023/11/23 09:48:30;;;;;;;23.98;12.18;;;;;;;0.78;100.00;99357.30;1745923;82;27749;-67
2023/11/23 09:51:00;;;;;;;25.10;11.78;;;;;;;0.81;100.00;99347.45;1719209;82;25579;-68
2023/11/23 09:53:30;;;;;;;25.05;13.10;;;;;;;0.85;100.00;99335.20;1747147;82;25542;-68
2023/11/23 09:56:09;;;;;;;27.62;12.45;;;;;;;0.89;100.00;99330.41;1747222;82;26243;-67
2023/11/23 09:58:42;;;;;;;26.93;13.85;;;;;;;0.92;100.00;99327.21;1747493;82;25565;-69
2023/11/23 10:01:11;;;;;;;29.37;14.93;;;;;;;0.94;100.00;99353.58;1747165;82;28296;-68
2023/11/23 10:03:41;;;;;;;25.23;13.20;;;;;;;0.99;100.00;99335.44;1747185;82;25565;-69
2023/11/23 10:06:11;;;;;;;23.77;13.00;;;;;;;1.00;100.00;99335.17;1747540;82;25558;-69
2023/11/23 10:08:37;;;;;;;;;;;;;;;1.03;100.00;99333.86;1752279;81;25799;-69
2023/11/23 10:11:08;;;;;;;33.75;15.88;;;;;;;1.06;100.00;99306.15;1772232;81;25159;-68
2023/11/23 10:13:36;;;;;;;29.10;14.87;;;;;;;1.09;100.00;99303.46;1772300;81;27383;-69
2023/11/23 10:16:06;;;;;;;28.20;15.43;;;;;;;1.13;100.00;99281.11;1771772;81;25598;-68
2023/11/23 10:18:42;;;;;;;28.27;15.00;;;;;;;1.16;100.00;99281.36;1771879;81;25592;-67
2023/11/23 10:21:15;;;;;;;29.35;14.83;;;;;;;1.20;100.00;99282.94;1771726;81;26305;-68
2023/11/23 10:23:45;;;;;;;29.40;15.93;;;;;;;1.24;100.00;99264.00;1771725;81;25384;-67
2023/11/23 10:26:17;;;;;;;32.58;16.20;;;;;;;1.27;100.00;99262.92;1771891;80;27323;-67
2023/11/23 10:28:45;;;;;;;33.80;16.57;;;;;;;1.32;100.00;99266.66;1771802;80;25142;-68
2023/11/23 10:31:15;;;;;;;32.93;16.77;;;;;;;1.35;100.00;99251.45;1771724;81;25737;-69
2023/11/23 10:33:48;;;;;;;32.58;16.30;;;;;;;1.38;100.00;99254.89;1771863;81;25831;-69
2023/11/23 10:36:20;;;;;;;38.98;17.35;;;;;;;1.41;100.00;99256.47;1771896;81;25567;-63
2023/11/23 10:38:50;;;;;;;33.85;16.45;;;;;;;1.43;100.00;99250.87;1771840;81;27336;-64
2023/11/23 10:41:21;;;;;;;;;;;;;;;1.45;100.00;99248.20;1774316;80;25612;-65
2023/11/23 10:43:54;;;;;;;54.65;30.27;;;;;;;1.56;100.00;99252.94;1771748;81;25615;-63
2023/11/23 10:46:24;;;;;;;35.83;16.42;;;;;;;1.63;100.00;99253.43;1771832;81;26188;-54
2023/11/23 10:48:56;;;;;;;34.65;17.25;;;;;;;1.70;100.00;99245.13;1771624;80;25644;-61
2023/11/23 10:51:32;;;;;;;33.40;16.82;;;;;;;1.82;100.00;99238.13;1771770;81;27923;-63
2023/11/23 10:54:08;;;;;;;34.98;16.80;;;;;;;1.90;100.00;99225.55;1771542;81;25535;-62
2023/11/23 10:56:40;;;;;;;30.77;17.15;;;;;;;1.93;100.00;99225.55;1771783;80;25397;-60
2023/11/23 10:59:20;;;;;;;35.20;17.17;;;;;;;1.96;100.00;99222.30;1771618;80;25634;-63
2023/11/23 11:01:48;;;;;;;30.40;15.32;;;;;;;1.99;100.00;99240.42;1770784;80;25403;-57
2023/11/23 11:04:19;;;;;;;35.90;14.93;;;;;;;2.01;100.00;99221.75;1771864;81;28378;-64
2023/11/23 11:06:47;;;;;;;32.65;16.42;;;;;;;2.05;100.00;99220.10;1771790;80;25531;-62
2023/11/23 11:09:22;;;;;;;30.80;15.43;;;;;;;2.10;100.00;99214.48;1766204;81;25574;-61
2023/11/23 11:12:00;;;;;;;28.45;15.05;;;;;;;2.11;100.00;99235.55;1747121;82;25847;-60
2023/11/23 11:14:39;;;;;;;29.00;15.93;;;;;;;2.13;100.00;99207.23;1747338;82;25582;-61
2023/11/23 11:17:08;;;;;;;32.45;16.05;;;;;;;2.14;100.00;99206.17;1747197;82;26913;-61
2023/11/23 11:19:53;;;;;;;30.85;15.80;;;;;;;2.16;100.00;99202.16;1747023;82;25697;-61
2023/11/23 11:22:19;;;;;;;30.65;14.90;;;;;;;2.19;100.00;99182.12;1738598;82;25627;-60
2023/11/23 11:24:51;;;;;;;38.83;19.23;;;;;;;2.20;100.00;99194.39;1747086;82;26555;-59
2023/11/23 11:27:19;;;;;;;33.42;16.67;;;;;;;2.22;100.00;99194.36;1742638;79;25623;-60